sensor_id;sensor_type;location;lat;lon;timestamp;P1;durP1;ratioP1;P2;durP2;ratioP2
33094;SDS011;19459;53.044;8.910;2022-12-18T00:01:17;84.43;;;41.40;;
33094;SDS011;19459;53.044;8.910;2022-12-18T00:03:46;84.30;;;39.72;;
33094;SDS011;19459;53.044;8.910;2022-12-18T00:06:12;90.25;;;40.75;;
33094;SDS011;19459;53.044;8.910;2022-12-18T00:08:39;85.45;;;40.33;;
33094;SDS011;19459;53.044;8.910;2022-12-18T00:11:06;79.72;;;40.10;;
33094;SDS011;19459;53.044;8.910;2022-12-18T00:13:37;80.22;;;39.97;;
33094;SDS011;19459;53.044;8.910;2022-12-18T00:16:03;81.40;;;41.00;;
33094;SDS011;19459;53.044;8.910;2022-12-18T00:18:32;85.78;;;41.53;;
33094;SDS011;19459;53.044;8.910;2022-12-18T00:20:59;84.93;;;41.13;;
33094;SDS011;19459;53.044;8.910;2022-12-18T00:23:27;92.78;;;41.10;;
33094;SDS011;19459;53.044;8.910;2022-12-18T00:25:54;85.13;;;39.38;;
33094;SDS011;19459;53.044;8.910;2022-12-18T00:28:23;82.50;;;38.20;;
33094;SDS011;19459;53.044;8.910;2022-12-18T00:30:49;77.13;;;38.90;;
33094;SDS011;19459;53.044;8.910;2022-12-18T00:33:16;79.13;;;39.90;;
33094;SDS011;19459;53.044;8.910;2022-12-18T00:35:42;88.00;;;39.10;;
33094;SDS011;19459;53.044;8.910;2022-12-18T00:38:08;75.47;;;37.88;;
33094;SDS011;19459;53.044;8.910;2022-12-18T00:40:34;81.35;;;39.08;;
33094;SDS011;19459;53.044;8.910;2022-12-18T00:43:00;79.28;;;38.15;;
33094;SDS011;19459;53.044;8.910;2022-12-18T00:45:26;80.45;;;38.42;;
33094;SDS011;19459;53.044;8.910;2022-12-18T00:47:54;78.13;;;36.55;;
33094;SDS011;19459;53.044;8.910;2022-12-18T00:50:22;82.47;;;37.22;;
33094;SDS011;19459;53.044;8.910;2022-12-18T00:52:49;66.85;;;33.60;;
33094;SDS011;19459;53.044;8.910;2022-12-18T00:55:16;72.90;;;33.30;;
33094;SDS011;19459;53.044;8.910;2022-12-18T00:57:42;71.03;;;35.92;;
33094;SDS011;19459;53.044;8.910;2022-12-18T01:00:09;77.28;;;36.03;;
33094;SDS011;19459;53.044;8.910;2022-12-18T01:02:38;81.22;;;35.95;;
33094;SDS011;19459;53.044;8.910;2022-12-18T01:05:04;75.95;;;34.05;;
33094;SDS011;19459;53.044;8.910;2022-12-18T01:07:30;78.38;;;34.97;;
33094;SDS011;19459;53.044;8.910;2022-12-18T01:09:56;67.28;;;33.92;;
33094;SDS011;19459;53.044;8.910;2022-12-18T01:12:21;66.03;;;33.90;;
33094;SDS011;19459;53.044;8.910;2022-12-18T01:14:47;72.40;;;34.25;;
33094;SDS011;19459;53.044;8.910;2022-12-18T01:17:13;65.75;;;32.28;;
33094;SDS011;19459;53.044;8.910;2022-12-18T01:19:39;65.80;;;32.72;;
33094;SDS011;19459;53.044;8.910;2022-12-18T01:22:05;69.88;;;33.05;;
33094;SDS011;19459;53.044;8.910;2022-12-18T01:24:31;69.03;;;34.10;;
33094;SDS011;19459;53.044;8.910;2022-12-18T01:26:56;68.35;;;31.98;;
33094;SDS011;19459;53.044;8.910;2022-12-18T01:29:23;65.63;;;31.80;;
33094;SDS011;19459;53.044;8.910;2022-12-18T01:31:48;72.22;;;32.17;;
33094;SDS011;19459;53.044;8.910;2022-12-18T01:34:14;61.67;;;32.55;;
33094;SDS011;19459;53.044;8.910;2022-12-18T01:36:40;59.35;;;29.38;;
33094;SDS011;19459;53.044;8.910;2022-12-18T01:39:07;60.47;;;31.27;;
33094;SDS011;19459;53.044;8.910;2022-12-18T01:41:38;57.85;;;29.02;;
33094;SDS011;19459;53.044;8.910;2022-12-18T01:47:33;60.50;;;29.77;;
33094;SDS011;19459;53.044;8.910;2022-12-18T01:50:17;64.25;;;27.92;;
33094;SDS011;19459;53.044;8.910;2022-12-18T01:53:03;60.55;;;28.38;;
33094;SDS011;19459;53.044;8.910;2022-12-18T01:55:45;57.10;;;28.45;;
33094;SDS011;19459;53.044;8.910;2022-12-18T01:58:13;47.45;;;25.58;;
33094;SDS011;19459;53.044;8.910;2022-12-18T02:00:40;59.33;;;28.20;;
33094;SDS011;19459;53.044;8.910;2022-12-18T02:03:06;54.45;;;26.90;;
33094;SDS011;19459;53.044;8.910;2022-12-18T02:05:55;57.60;;;26.55;;
33094;SDS011;19459;53.044;8.910;2022-12-18T02:11:57;56.25;;;25.83;;
33094;SDS011;19459;53.044;8.910;2022-12-18T02:14:41;58.25;;;26.60;;
33094;SDS011;19459;53.044;8.910;2022-12-18T02:17:25;60.60;;;27.10;;
33094;SDS011;19459;53.044;8.910;2022-12-18T02:26:07;53.80;;;24.17;;
33094;SDS011;19459;53.044;8.910;2022-12-18T02:28:55;51.80;;;25.13;;
33094;SDS011;19459;53.044;8.910;2022-12-18T02:31:27;51.90;;;24.73;;
33094;SDS011;19459;53.044;8.910;2022-12-18T02:33:59;52.95;;;24.25;;
33094;SDS011;19459;53.044;8.910;2022-12-18T02:36:28;51.95;;;25.27;;
33094;SDS011;19459;53.044;8.910;2022-12-18T02:38:57;55.08;;;25.45;;
33094;SDS011;19459;53.044;8.910;2022-12-18T02:41:26;49.42;;;23.92;;
33094;SDS011;19459;53.044;8.910;2022-12-18T02:43:57;47.83;;;25.42;;
33094;SDS011;19459;53.044;8.910;2022-12-18T02:49:12;46.80;;;22.63;;
33094;SDS011;19459;53.044;8.910;2022-12-18T02:52:18;45.35;;;21.33;;
33094;SDS011;19459;53.044;8.910;2022-12-18T02:58:16;47.15;;;21.95;;
33094;SDS011;19459;53.044;8.910;2022-12-18T03:01:02;46.63;;;20.67;;
33094;SDS011;19459;53.044;8.910;2022-12-18T03:03:42;46.35;;;21.50;;
33094;SDS011;19459;53.044;8.910;2022-12-18T03:06:27;49.85;;;21.55;;
33094;SDS011;19459;53.044;8.910;2022-12-18T03:09:02;38.97;;;19.95;;
33094;SDS011;19459;53.044;8.910;2022-12-18T03:11:36;42.35;;;19.80;;
33094;SDS011;19459;53.044;8.910;2022-12-18T03:14:24;46.17;;;22.52;;
33094;SDS011;19459;53.044;8.910;2022-12-18T03:16:52;43.58;;;20.70;;
33094;SDS011;19459;53.044;8.910;2022-12-18T03:19:21;43.17;;;20.45;;
33094;SDS011;19459;53.044;8.910;2022-12-18T03:21:51;41.45;;;22.50;;
33094;SDS011;19459;53.044;8.910;2022-12-18T03:24:21;48.05;;;22.08;;
33094;SDS011;19459;53.044;8.910;2022-12-18T03:26:49;47.50;;;21.52;;
33094;SDS011;19459;53.044;8.910;2022-12-18T03:29:27;40.67;;;20.15;;
33094;SDS011;19459;53.044;8.910;2022-12-18T03:32:02;48.20;;;19.80;;
33094;SDS011;19459;53.044;8.910;2022-12-18T03:34:37;42.25;;;19.88;;
33094;SDS011;19459;53.044;8.910;2022-12-18T03:37:05;42.80;;;20.38;;
33094;SDS011;19459;53.044;8.910;2022-12-18T03:39:32;45.03;;;18.38;;
33094;SDS011;19459;53.044;8.910;2022-12-18T03:45:09;45.60;;;19.35;;
33094;SDS011;19459;53.044;8.910;2022-12-18T03:51:12;43.42;;;19.08;;
33094;SDS011;19459;53.044;8.910;2022-12-18T03:53:49;39.90;;;19.00;;
33094;SDS011;19459;53.044;8.910;2022-12-18T03:56:29;36.70;;;18.77;;
33094;SDS011;19459;53.044;8.910;2022-12-18T03:58:58;28.75;;;14.23;;
33094;SDS011;19459;53.044;8.910;2022-12-18T04:01:31;44.13;;;18.77;;
33094;SDS011;19459;53.044;8.910;2022-12-18T04:04:05;34.10;;;17.95;;
33094;SDS011;19459;53.044;8.910;2022-12-18T04:06:36;37.22;;;18.02;;
33094;SDS011;19459;53.044;8.910;2022-12-18T04:09:04;37.47;;;18.50;;
33094;SDS011;19459;53.044;8.910;2022-12-18T04:11:30;34.33;;;17.33;;
33094;SDS011;19459;53.044;8.910;2022-12-18T04:13:56;38.20;;;18.27;;
33094;SDS011;19459;53.044;8.910;2022-12-18T04:16:23;39.63;;;18.35;;
33094;SDS011;19459;53.044;8.910;2022-12-18T04:18:50;34.38;;;16.15;;
33094;SDS011;19459;53.044;8.910;2022-12-18T04:21:16;37.17;;;18.40;;
33094;SDS011;19459;53.044;8.910;2022-12-18T04:23:42;36.58;;;17.58;;
33094;SDS011;19459;53.044;8.910;2022-12-18T04:26:08;35.30;;;15.88;;
33094;SDS011;19459;53.044;8.910;2022-12-18T04:28:34;37.13;;;17.27;;
33094;SDS011;19459;53.044;8.910;2022-12-18T04:30:59;27.27;;;15.65;;
33094;SDS011;19459;53.044;8.910;2022-12-18T04:33:25;33.45;;;16.33;;
33094;SDS011;19459;53.044;8.910;2022-12-18T04:35:51;38.45;;;17.27;;
33094;SDS011;19459;53.044;8.910;2022-12-18T04:38:16;32.65;;;16.92;;
33094;SDS011;19459;53.044;8.910;2022-12-18T04:40:42;37.17;;;16.80;;
33094;SDS011;19459;53.044;8.910;2022-12-18T04:43:08;38.80;;;18.20;;
33094;SDS011;19459;53.044;8.910;2022-12-18T04:45:34;39.22;;;18.20;;
33094;SDS011;19459;53.044;8.910;2022-12-18T04:48:01;35.88;;;16.83;;
33094;SDS011;19459;53.044;8.910;2022-12-18T04:50:27;35.25;;;17.33;;
33094;SDS011;19459;53.044;8.910;2022-12-18T04:52:53;38.67;;;18.27;;
33094;SDS011;19459;53.044;8.910;2022-12-18T04:55:20;34.38;;;16.40;;
33094;SDS011;19459;53.044;8.910;2022-12-18T04:57:46;32.38;;;16.38;;
33094;SDS011;19459;53.044;8.910;2022-12-18T05:00:12;38.88;;;17.10;;
33094;SDS011;19459;53.044;8.910;2022-12-18T05:02:38;32.88;;;15.32;;
33094;SDS011;19459;53.044;8.910;2022-12-18T05:05:04;35.30;;;16.42;;
33094;SDS011;19459;53.044;8.910;2022-12-18T05:07:30;35.45;;;16.27;;
33094;SDS011;19459;53.044;8.910;2022-12-18T05:09:56;32.47;;;17.33;;
33094;SDS011;19459;53.044;8.910;2022-12-18T05:12:22;36.65;;;15.93;;
33094;SDS011;19459;53.044;8.910;2022-12-18T05:14:49;37.15;;;16.13;;
33094;SDS011;19459;53.044;8.910;2022-12-18T05:17:15;31.58;;;16.13;;
33094;SDS011;19459;53.044;8.910;2022-12-18T05:19:41;35.15;;;16.75;;
33094;SDS011;19459;53.044;8.910;2022-12-18T05:22:06;35.03;;;16.80;;
33094;SDS011;19459;53.044;8.910;2022-12-18T05:24:33;33.65;;;15.40;;
33094;SDS011;19459;53.044;8.910;2022-12-18T05:26:59;33.95;;;15.75;;
33094;SDS011;19459;53.044;8.910;2022-12-18T05:29:25;36.47;;;16.20;;
33094;SDS011;19459;53.044;8.910;2022-12-18T05:31:51;36.10;;;16.40;;
33094;SDS011;19459;53.044;8.910;2022-12-18T05:34:16;27.55;;;16.20;;
33094;SDS011;19459;53.044;8.910;2022-12-18T05:36:42;32.47;;;17.33;;
33094;SDS011;19459;53.044;8.910;2022-12-18T05:39:08;31.50;;;15.07;;
33094;SDS011;19459;53.044;8.910;2022-12-18T05:41:34;25.83;;;14.40;;
33094;SDS011;19459;53.044;8.910;2022-12-18T05:44:00;36.00;;;16.13;;
33094;SDS011;19459;53.044;8.910;2022-12-18T05:46:26;33.47;;;15.60;;
33094;SDS011;19459;53.044;8.910;2022-12-18T05:48:52;35.92;;;15.10;;
33094;SDS011;19459;53.044;8.910;2022-12-18T05:51:18;32.88;;;17.02;;
33094;SDS011;19459;53.044;8.910;2022-12-18T05:53:46;29.92;;;15.55;;
33094;SDS011;19459;53.044;8.910;2022-12-18T05:56:18;35.88;;;16.88;;
33094;SDS011;19459;53.044;8.910;2022-12-18T05:58:50;35.00;;;16.02;;
33094;SDS011;19459;53.044;8.910;2022-12-18T06:01:19;28.83;;;15.40;;
33094;SDS011;19459;53.044;8.910;2022-12-18T06:03:48;31.73;;;15.13;;
33094;SDS011;19459;53.044;8.910;2022-12-18T06:06:19;34.13;;;15.95;;
33094;SDS011;19459;53.044;8.910;2022-12-18T06:08:50;33.17;;;15.45;;
33094;SDS011;19459;53.044;8.910;2022-12-18T06:11:18;36.30;;;16.73;;
33094;SDS011;19459;53.044;8.910;2022-12-18T06:13:49;33.75;;;16.10;;
33094;SDS011;19459;53.044;8.910;2022-12-18T06:16:16;36.55;;;15.57;;
33094;SDS011;19459;53.044;8.910;2022-12-18T06:18:42;36.35;;;15.82;;
33094;SDS011;19459;53.044;8.910;2022-12-18T06:21:08;40.53;;;16.20;;
33094;SDS011;19459;53.044;8.910;2022-12-18T06:23:34;31.95;;;17.73;;
33094;SDS011;19459;53.044;8.910;2022-12-18T06:26:04;37.20;;;18.20;;
33094;SDS011;19459;53.044;8.910;2022-12-18T06:28:38;34.53;;;18.80;;
33094;SDS011;19459;53.044;8.910;2022-12-18T06:31:05;44.30;;;20.50;;
33094;SDS011;19459;53.044;8.910;2022-12-18T06:33:31;56.05;;;21.65;;
33094;SDS011;19459;53.044;8.910;2022-12-18T06:36:05;53.90;;;22.02;;
33094;SDS011;19459;53.044;8.910;2022-12-18T06:38:35;43.00;;;20.63;;
33094;SDS011;19459;53.044;8.910;2022-12-18T06:41:11;42.47;;;20.85;;
33094;SDS011;19459;53.044;8.910;2022-12-18T06:43:43;42.15;;;19.02;;
33094;SDS011;19459;53.044;8.910;2022-12-18T06:46:09;40.55;;;18.52;;
33094;SDS011;19459;53.044;8.910;2022-12-18T06:48:35;30.95;;;15.70;;
33094;SDS011;19459;53.044;8.910;2022-12-18T06:51:01;38.97;;;17.05;;
33094;SDS011;19459;53.044;8.910;2022-12-18T06:53:31;32.03;;;15.02;;
33094;SDS011;19459;53.044;8.910;2022-12-18T06:56:02;37.20;;;16.75;;
33094;SDS011;19459;53.044;8.910;2022-12-18T06:58:32;38.17;;;16.83;;
33094;SDS011;19459;53.044;8.910;2022-12-18T07:01:01;31.15;;;16.15;;
33094;SDS011;19459;53.044;8.910;2022-12-18T07:03:29;38.05;;;16.58;;
33094;SDS011;19459;53.044;8.910;2022-12-18T07:05:55;33.65;;;19.10;;
33094;SDS011;19459;53.044;8.910;2022-12-18T07:08:21;31.70;;;17.10;;
33094;SDS011;19459;53.044;8.910;2022-12-18T07:10:47;35.25;;;15.95;;
33094;SDS011;19459;53.044;8.910;2022-12-18T07:13:14;31.35;;;14.27;;
33094;SDS011;19459;53.044;8.910;2022-12-18T07:15:40;32.38;;;15.02;;
33094;SDS011;19459;53.044;8.910;2022-12-18T07:18:06;27.23;;;16.13;;
33094;SDS011;19459;53.044;8.910;2022-12-18T07:20:32;28.90;;;15.02;;
33094;SDS011;19459;53.044;8.910;2022-12-18T07:22:58;31.50;;;15.30;;
33094;SDS011;19459;53.044;8.910;2022-12-18T07:25:24;33.60;;;16.02;;
33094;SDS011;19459;53.044;8.910;2022-12-18T07:27:49;34.22;;;16.17;;
33094;SDS011;19459;53.044;8.910;2022-12-18T07:30:15;35.15;;;17.67;;
33094;SDS011;19459;53.044;8.910;2022-12-18T07:32:41;39.38;;;15.88;;
33094;SDS011;19459;53.044;8.910;2022-12-18T07:35:07;32.83;;;16.33;;
33094;SDS011;19459;53.044;8.910;2022-12-18T07:37:33;32.55;;;16.27;;
33094;SDS011;19459;53.044;8.910;2022-12-18T07:39:58;34.38;;;16.98;;
33094;SDS011;19459;53.044;8.910;2022-12-18T07:42:24;29.90;;;14.77;;
33094;SDS011;19459;53.044;8.910;2022-12-18T07:44:56;38.20;;;16.83;;
33094;SDS011;19459;53.044;8.910;2022-12-18T07:47:43;34.80;;;15.88;;
33094;SDS011;19459;53.044;8.910;2022-12-18T07:50:09;32.75;;;15.70;;
33094;SDS011;19459;53.044;8.910;2022-12-18T07:52:36;32.35;;;15.75;;
33094;SDS011;19459;53.044;8.910;2022-12-18T07:55:02;35.33;;;16.98;;
33094;SDS011;19459;53.044;8.910;2022-12-18T07:57:28;34.35;;;15.90;;
33094;SDS011;19459;53.044;8.910;2022-12-18T07:59:53;35.60;;;15.65;;
33094;SDS011;19459;53.044;8.910;2022-12-18T08:02:19;35.78;;;15.68;;
33094;SDS011;19459;53.044;8.910;2022-12-18T08:04:45;30.83;;;16.85;;
33094;SDS011;19459;53.044;8.910;2022-12-18T08:07:13;38.45;;;17.23;;
33094;SDS011;19459;53.044;8.910;2022-12-18T08:09:39;35.97;;;16.88;;
33094;SDS011;19459;53.044;8.910;2022-12-18T08:12:05;33.50;;;16.38;;
33094;SDS011;19459;53.044;8.910;2022-12-18T08:14:31;39.60;;;17.20;;
33094;SDS011;19459;53.044;8.910;2022-12-18T08:16:56;30.05;;;16.83;;
33094;SDS011;19459;53.044;8.910;2022-12-18T08:19:22;37.97;;;17.88;;
33094;SDS011;19459;53.044;8.910;2022-12-18T08:21:48;33.65;;;17.30;;
33094;SDS011;19459;53.044;8.910;2022-12-18T08:24:14;45.40;;;19.35;;
33094;SDS011;19459;53.044;8.910;2022-12-18T08:26:40;41.60;;;19.80;;
33094;SDS011;19459;53.044;8.910;2022-12-18T08:29:10;42.65;;;18.77;;
33094;SDS011;19459;53.044;8.910;2022-12-18T08:31:42;41.28;;;19.65;;
33094;SDS011;19459;53.044;8.910;2022-12-18T08:34:11;47.00;;;21.00;;
33094;SDS011;19459;53.044;8.910;2022-12-18T08:36:41;39.35;;;18.77;;
33094;SDS011;19459;53.044;8.910;2022-12-18T08:39:07;42.70;;;19.50;;
33094;SDS011;19459;53.044;8.910;2022-12-18T08:41:33;33.63;;;19.33;;
33094;SDS011;19459;53.044;8.910;2022-12-18T08:43:59;41.38;;;18.30;;
33094;SDS011;19459;53.044;8.910;2022-12-18T08:46:43;37.58;;;19.08;;
33094;SDS011;19459;53.044;8.910;2022-12-18T08:49:09;50.03;;;19.58;;
33094;SDS011;19459;53.044;8.910;2022-12-18T08:51:36;40.20;;;18.35;;
33094;SDS011;19459;53.044;8.910;2022-12-18T08:54:03;41.28;;;19.40;;
33094;SDS011;19459;53.044;8.910;2022-12-18T08:56:29;38.88;;;20.13;;
33094;SDS011;19459;53.044;8.910;2022-12-18T08:58:56;37.47;;;19.70;;
33094;SDS011;19459;53.044;8.910;2022-12-18T09:01:22;39.45;;;20.90;;
33094;SDS011;19459;53.044;8.910;2022-12-18T09:03:48;40.58;;;18.52;;
33094;SDS011;19459;53.044;8.910;2022-12-18T09:06:15;34.33;;;18.35;;
33094;SDS011;19459;53.044;8.910;2022-12-18T09:08:43;34.40;;;16.70;;
33094;SDS011;19459;53.044;8.910;2022-12-18T09:11:13;35.78;;;17.10;;
33094;SDS011;19459;53.044;8.910;2022-12-18T09:13:45;34.08;;;16.25;;
33094;SDS011;19459;53.044;8.910;2022-12-18T09:16:11;38.85;;;16.00;;
33094;SDS011;19459;53.044;8.910;2022-12-18T09:18:37;34.10;;;16.17;;
33094;SDS011;19459;53.044;8.910;2022-12-18T09:21:13;26.30;;;13.68;;
33094;SDS011;19459;53.044;8.910;2022-12-18T09:23:49;27.98;;;14.55;;
33094;SDS011;19459;53.044;8.910;2022-12-18T09:26:16;22.75;;;12.82;;
33094;SDS011;19459;53.044;8.910;2022-12-18T09:28:42;28.35;;;14.63;;
33094;SDS011;19459;53.044;8.910;2022-12-18T09:31:08;27.67;;;14.43;;
33094;SDS011;19459;53.044;8.910;2022-12-18T09:33:41;26.60;;;14.50;;
33094;SDS011;19459;53.044;8.910;2022-12-18T09:36:08;28.05;;;14.65;;
33094;SDS011;19459;53.044;8.910;2022-12-18T09:38:35;29.83;;;15.48;;
33094;SDS011;19459;53.044;8.910;2022-12-18T09:41:17;28.40;;;14.75;;
33094;SDS011;19459;53.044;8.910;2022-12-18T09:46:38;32.55;;;15.63;;
33094;SDS011;19459;53.044;8.910;2022-12-18T09:49:14;29.83;;;14.98;;
33094;SDS011;19459;53.044;8.910;2022-12-18T09:51:49;33.20;;;15.40;;
33094;SDS011;19459;53.044;8.910;2022-12-18T09:54:22;28.40;;;14.18;;
33094;SDS011;19459;53.044;8.910;2022-12-18T09:57:20;30.45;;;15.48;;
33094;SDS011;19459;53.044;8.910;2022-12-18T09:59:55;41.25;;;18.20;;
33094;SDS011;19459;53.044;8.910;2022-12-18T10:02:35;26.35;;;15.32;;
33094;SDS011;19459;53.044;8.910;2022-12-18T10:05:07;27.17;;;15.98;;
33094;SDS011;19459;53.044;8.910;2022-12-18T10:16:16;29.80;;;14.30;;
33094;SDS011;19459;53.044;8.910;2022-12-18T10:19:03;32.55;;;15.13;;
33094;SDS011;19459;53.044;8.910;2022-12-18T10:21:45;40.00;;;19.55;;
33094;SDS011;19459;53.044;8.910;2022-12-18T10:24:34;33.95;;;18.35;;
33094;SDS011;19459;53.044;8.910;2022-12-18T10:27:15;35.63;;;16.92;;
33094;SDS011;19459;53.044;8.910;2022-12-18T10:29:49;27.38;;;16.15;;
33094;SDS011;19459;53.044;8.910;2022-12-18T10:32:19;33.30;;;16.40;;
33094;SDS011;19459;53.044;8.910;2022-12-18T10:34:51;33.15;;;18.58;;
33094;SDS011;19459;53.044;8.910;2022-12-18T10:37:22;31.77;;;17.23;;
33094;SDS011;19459;53.044;8.910;2022-12-18T10:42:40;28.02;;;16.10;;
33094;SDS011;19459;53.044;8.910;2022-12-18T10:45:12;28.63;;;15.65;;
33094;SDS011;19459;53.044;8.910;2022-12-18T10:47:49;26.30;;;14.68;;
33094;SDS011;19459;53.044;8.910;2022-12-18T10:50:32;31.05;;;14.40;;
33094;SDS011;19459;53.044;8.910;2022-12-18T10:53:03;30.92;;;14.20;;
33094;SDS011;19459;53.044;8.910;2022-12-18T10:55:34;31.83;;;14.40;;
33094;SDS011;19459;53.044;8.910;2022-12-18T11:04:07;38.97;;;18.98;;
33094;SDS011;19459;53.044;8.910;2022-12-18T11:06:34;43.10;;;20.88;;
33094;SDS011;19459;53.044;8.910;2022-12-18T11:09:24;69.05;;;32.92;;
33094;SDS011;19459;53.044;8.910;2022-12-18T11:11:57;50.95;;;23.08;;
33094;SDS011;19459;53.044;8.910;2022-12-18T11:14:30;32.42;;;17.20;;
33094;SDS011;19459;53.044;8.910;2022-12-18T11:19:39;30.90;;;14.23;;
33094;SDS011;19459;53.044;8.910;2022-12-18T11:22:25;30.65;;;15.20;;
33094;SDS011;19459;53.044;8.910;2022-12-18T11:27:31;26.23;;;13.20;;
33094;SDS011;19459;53.044;8.910;2022-12-18T11:30:20;26.10;;;13.70;;
33094;SDS011;19459;53.044;8.910;2022-12-18T11:35:53;22.95;;;11.68;;
33094;SDS011;19459;53.044;8.910;2022-12-18T11:38:24;19.13;;;11.45;;
33094;SDS011;19459;53.044;8.910;2022-12-18T11:44:36;21.45;;;10.95;;
33094;SDS011;19459;53.044;8.910;2022-12-18T11:50:17;23.95;;;12.10;;
33094;SDS011;19459;53.044;8.910;2022-12-18T11:52:51;19.02;;;11.65;;
33094;SDS011;19459;53.044;8.910;2022-12-18T12:09:40;22.15;;;11.43;;
33094;SDS011;19459;53.044;8.910;2022-12-18T12:16:22;18.95;;;11.18;;
33094;SDS011;19459;53.044;8.910;2022-12-18T12:27:56;22.38;;;12.02;;
33094;SDS011;19459;53.044;8.910;2022-12-18T12:31:15;20.23;;;12.77;;
33094;SDS011;19459;53.044;8.910;2022-12-18T12:34:04;24.83;;;12.23;;
33094;SDS011;19459;53.044;8.910;2022-12-18T12:39:36;20.60;;;10.48;;
33094;SDS011;19459;53.044;8.910;2022-12-18T12:42:06;21.15;;;11.80;;
33094;SDS011;19459;53.044;8.910;2022-12-18T12:45:27;21.38;;;11.50;;
33094;SDS011;19459;53.044;8.910;2022-12-18T12:48:17;24.70;;;12.15;;
33094;SDS011;19459;53.044;8.910;2022-12-18T12:51:10;22.00;;;11.98;;
33094;SDS011;19459;53.044;8.910;2022-12-18T12:53:41;24.08;;;11.95;;
33094;SDS011;19459;53.044;8.910;2022-12-18T12:56:08;25.42;;;13.68;;
33094;SDS011;19459;53.044;8.910;2022-12-18T13:01:40;23.70;;;13.82;;
33094;SDS011;19459;53.044;8.910;2022-12-18T13:06:47;26.80;;;14.90;;
33094;SDS011;19459;53.044;8.910;2022-12-18T13:09:33;24.92;;;12.88;;
33094;SDS011;19459;53.044;8.910;2022-12-18T13:12:03;20.77;;;12.60;;
33094;SDS011;19459;53.044;8.910;2022-12-18T13:14:55;21.92;;;11.75;;
33094;SDS011;19459;53.044;8.910;2022-12-18T13:17:47;29.05;;;13.40;;
33094;SDS011;19459;53.044;8.910;2022-12-18T13:20:14;25.42;;;12.43;;
33094;SDS011;19459;53.044;8.910;2022-12-18T13:22:44;26.00;;;13.82;;
33094;SDS011;19459;53.044;8.910;2022-12-18T13:25:32;26.08;;;13.25;;
33094;SDS011;19459;53.044;8.910;2022-12-18T13:41:43;22.17;;;12.57;;
33094;SDS011;19459;53.044;8.910;2022-12-18T13:51:43;25.92;;;12.25;;
33094;SDS011;19459;53.044;8.910;2022-12-18T13:54:18;24.35;;;12.60;;
33094;SDS011;19459;53.044;8.910;2022-12-18T13:56:55;23.33;;;12.73;;
33094;SDS011;19459;53.044;8.910;2022-12-18T13:59:24;27.70;;;14.32;;
33094;SDS011;19459;53.044;8.910;2022-12-18T14:01:59;22.67;;;12.65;;
33094;SDS011;19459;53.044;8.910;2022-12-18T14:04:40;22.15;;;12.73;;
33094;SDS011;19459;53.044;8.910;2022-12-18T14:07:17;20.58;;;11.15;;
33094;SDS011;19459;53.044;8.910;2022-12-18T14:09:52;25.30;;;12.43;;
33094;SDS011;19459;53.044;8.910;2022-12-18T14:12:33;23.13;;;12.77;;
33094;SDS011;19459;53.044;8.910;2022-12-18T14:17:55;31.90;;;14.88;;
33094;SDS011;19459;53.044;8.910;2022-12-18T14:20:24;27.05;;;13.65;;
33094;SDS011;19459;53.044;8.910;2022-12-18T14:22:56;24.88;;;13.32;;
33094;SDS011;19459;53.044;8.910;2022-12-18T14:25:24;25.65;;;13.10;;
33094;SDS011;19459;53.044;8.910;2022-12-18T14:27:53;27.02;;;14.18;;
33094;SDS011;19459;53.044;8.910;2022-12-18T14:30:53;26.27;;;12.82;;
33094;SDS011;19459;53.044;8.910;2022-12-18T14:33:20;26.33;;;13.35;;
33094;SDS011;19459;53.044;8.910;2022-12-18T14:38:34;27.02;;;14.23;;
33094;SDS011;19459;53.044;8.910;2022-12-18T14:41:05;25.45;;;12.85;;
33094;SDS011;19459;53.044;8.910;2022-12-18T14:43:39;30.10;;;14.30;;
33094;SDS011;19459;53.044;8.910;2022-12-18T14:49:29;25.15;;;13.10;;
33094;SDS011;19459;53.044;8.910;2022-12-18T14:52:06;19.33;;;11.82;;
33094;SDS011;19459;53.044;8.910;2022-12-18T14:54:52;24.95;;;12.55;;
33094;SDS011;19459;53.044;8.910;2022-12-18T14:57:23;24.83;;;12.73;;
33094;SDS011;19459;53.044;8.910;2022-12-18T14:59:51;35.08;;;17.38;;
33094;SDS011;19459;53.044;8.910;2022-12-18T15:02:18;30.10;;;14.73;;
33094;SDS011;19459;53.044;8.910;2022-12-18T15:04:47;34.40;;;15.80;;
33094;SDS011;19459;53.044;8.910;2022-12-18T15:07:25;26.63;;;12.20;;
33094;SDS011;19459;53.044;8.910;2022-12-18T15:15:41;23.92;;;13.93;;
33094;SDS011;19459;53.044;8.910;2022-12-18T15:23:28;22.05;;;10.95;;
33094;SDS011;19459;53.044;8.910;2022-12-18T15:26:02;28.63;;;13.70;;
33094;SDS011;19459;53.044;8.910;2022-12-18T15:28:37;19.08;;;10.30;;
33094;SDS011;19459;53.044;8.910;2022-12-18T15:33:39;25.70;;;13.65;;
33094;SDS011;19459;53.044;8.910;2022-12-18T15:36:18;22.70;;;10.73;;
33094;SDS011;19459;53.044;8.910;2022-12-18T15:38:47;27.50;;;11.80;;
33094;SDS011;19459;53.044;8.910;2022-12-18T15:41:18;22.27;;;11.27;;
33094;SDS011;19459;53.044;8.910;2022-12-18T15:43:46;34.40;;;12.00;;
33094;SDS011;19459;53.044;8.910;2022-12-18T15:46:15;23.90;;;12.10;;
33094;SDS011;19459;53.044;8.910;2022-12-18T15:48:44;26.23;;;13.15;;
33094;SDS011;19459;53.044;8.910;2022-12-18T15:51:16;27.08;;;13.48;;
33094;SDS011;19459;53.044;8.910;2022-12-18T15:53:48;20.75;;;11.40;;
33094;SDS011;19459;53.044;8.910;2022-12-18T15:56:17;23.40;;;11.65;;
33094;SDS011;19459;53.044;8.910;2022-12-18T15:59:04;23.25;;;11.70;;
33094;SDS011;19459;53.044;8.910;2022-12-18T16:01:41;23.63;;;12.23;;
33094;SDS011;19459;53.044;8.910;2022-12-18T16:04:13;25.15;;;12.40;;
33094;SDS011;19459;53.044;8.910;2022-12-18T16:06:41;27.08;;;12.52;;
33094;SDS011;19459;53.044;8.910;2022-12-18T16:09:08;24.73;;;12.18;;
33094;SDS011;19459;53.044;8.910;2022-12-18T16:11:34;22.60;;;12.25;;
33094;SDS011;19459;53.044;8.910;2022-12-18T16:16:44;20.75;;;12.00;;
33094;SDS011;19459;53.044;8.910;2022-12-18T16:19:11;24.95;;;12.57;;
33094;SDS011;19459;53.044;8.910;2022-12-18T16:21:37;25.63;;;10.98;;
33094;SDS011;19459;53.044;8.910;2022-12-18T16:24:03;24.10;;;11.93;;
33094;SDS011;19459;53.044;8.910;2022-12-18T16:26:33;26.15;;;12.38;;
33094;SDS011;19459;53.044;8.910;2022-12-18T16:28:58;18.55;;;10.93;;
33094;SDS011;19459;53.044;8.910;2022-12-18T16:31:24;25.25;;;12.68;;
33094;SDS011;19459;53.044;8.910;2022-12-18T16:34:09;21.38;;;12.00;;
33094;SDS011;19459;53.044;8.910;2022-12-18T16:36:39;24.10;;;12.90;;
33094;SDS011;19459;53.044;8.910;2022-12-18T16:39:05;22.77;;;11.73;;
33094;SDS011;19459;53.044;8.910;2022-12-18T16:41:31;22.73;;;11.45;;
33094;SDS011;19459;53.044;8.910;2022-12-18T16:43:57;21.33;;;11.20;;
33094;SDS011;19459;53.044;8.910;2022-12-18T16:46:26;24.80;;;12.43;;
33094;SDS011;19459;53.044;8.910;2022-12-18T16:48:52;21.02;;;11.95;;
33094;SDS011;19459;53.044;8.910;2022-12-18T16:51:18;22.77;;;11.88;;
33094;SDS011;19459;53.044;8.910;2022-12-18T16:53:43;26.73;;;11.93;;
33094;SDS011;19459;53.044;8.910;2022-12-18T16:56:12;27.60;;;12.85;;
33094;SDS011;19459;53.044;8.910;2022-12-18T16:58:38;33.70;;;14.60;;
33094;SDS011;19459;53.044;8.910;2022-12-18T17:01:07;28.98;;;14.05;;
33094;SDS011;19459;53.044;8.910;2022-12-18T17:03:34;27.60;;;14.95;;
33094;SDS011;19459;53.044;8.910;2022-12-18T17:06:04;31.40;;;13.63;;